Time;durP1;ratioP1;P1;durP2;ratioP2;P2;SDS_P1;SDS_P2;PMS_P1;PMS_P2;Temp;Humidity;BMP_temperature;BMP_pressure;BME280_temperature;BME280_humidity;BME280_pressure;Samples;Min_cycle;Max_cycle;Signal;HPM_P1;HPM_P2
2023/05/25 00:00:07;;;;;;;10.07;6.03;;;15.20;99.90;;;;;;10195857;29;20211;-93
2023/05/25 00:05:09;;;;;;;7.82;5.60;;;15.10;99.90;;;;;;10213018;29;20287;-95
2023/05/25 00:10:12;;;;;;;11.35;7.20;;;14.90;99.90;;;;;;10212919;29;20618;-94
2023/05/25 00:15:15;;;;;;;5.57;4.68;;;14.90;99.90;;;;;;10195425;29;20278;-95
2023/05/25 00:20:18;;;;;;;10.18;7.43;;;14.90;99.90;;;;;;10212653;29;20211;-94
2023/05/25 00:25:21;;;;;;;11.88;7.40;;;14.90;99.90;;;;;;10213304;29;20215;-94
2023/05/25 00:30:23;;;;;;;6.53;5.13;;;14.70;99.90;;;;;;10195929;29;20239;-94
2023/05/25 00:35:26;;;;;;;11.15;7.35;;;14.90;99.90;;;;;;10212203;29;20274;-94
2023/05/25 00:40:29;;;;;;;11.48;5.97;;;14.90;99.90;;;;;;10195287;29;20219;-94
2023/05/25 00:45:31;;;;;;;4.75;4.30;;;15.00;99.90;;;;;;10195284;29;20278;-94
2023/05/25 00:50:38;;;;;;;10.35;6.55;;;15.10;99.90;;;;;;10212040;29;20286;-94
2023/05/25 00:55:48;;;;;;;10.68;6.38;;;15.30;99.90;;;;;;10212163;29;20294;-95
2023/05/25 01:00:53;;;;;;;7.20;5.07;;;15.10;99.90;;;;;;10195123;29;20203;-94
2023/05/25 01:05:56;;;;;;;7.35;6.47;;;15.00;99.90;;;;;;10210079;29;20585;-94
2023/05/25 01:11:02;;;;;;;8.38;5.40;;;15.00;99.90;;;;;;10194897;29;20258;-94
2023/05/25 01:16:06;;;;;;;9.50;6.07;;;15.10;99.90;;;;;;10210119;29;20254;-94
2023/05/25 01:21:16;;;;;;;11.25;6.63;;;15.20;99.90;;;;;;10193338;29;20214;-95
2023/05/25 01:26:20;;;;;;;7.85;5.28;;;15.20;99.90;;;;;;10211764;29;20232;-95
2023/05/25 01:31:23;;;;;;;8.98;6.82;;;15.30;99.90;;;;;;10193751;29;20240;-94
2023/05/25 01:36:26;;;;;;;10.05;7.10;;;15.30;99.90;;;;;;10210993;29;20580;-95
2023/05/25 01:41:28;;;;;;;10.95;7.18;;;15.10;99.90;;;;;;10210956;29;20211;-95
2023/05/25 01:46:36;;;;;;;8.88;5.78;;;15.00;99.90;;;;;;10211030;29;20356;-94
2023/05/25 01:51:47;;;;;;;10.68;6.65;;;15.00;99.90;;;;;;10216191;29;20756;-95
2023/05/25 01:56:51;;;;;;;9.45;4.60;;;15.00;99.90;;;;;;10200299;29;20234;-95
2023/05/25 02:01:54;;;;;;;6.45;5.43;;;15.10;99.90;;;;;;10215604;29;20286;-94
2023/05/25 02:06:57;;;;;;;9.55;6.45;;;15.10;99.90;;;;;;10199322;29;20243;-94
2023/05/25 02:12:00;;;;;;;10.73;6.90;;;15.00;99.90;;;;;;10216260;29;20828;-95
2023/05/25 02:17:02;;;;;;;10.52;6.82;;;14.90;99.90;;;;;;10215970;29;20360;-95
2023/05/25 02:22:05;;;;;;;12.55;7.60;;;14.60;99.90;;;;;;10200218;29;20258;-94
2023/05/25 02:27:07;;;;;;;9.57;6.32;;;14.30;99.90;;;;;;10199633;29;20215;-95
2023/05/25 02:32:11;;;;;;;12.80;6.80;;;14.20;99.90;;;;;;10216149;29;20227;-94
2023/05/25 02:37:13;;;;;;;10.18;6.05;;;14.00;99.90;;;;;;10198730;29;20603;-94
2023/05/25 02:42:17;;;;;;;8.27;5.15;;;13.90;99.90;;;;;;10198717;29;20282;-95
2023/05/25 02:47:20;;;;;;;10.45;6.35;;;13.90;99.90;;;;;;10216445;29;20268;-94
2023/05/25 02:52:24;;;;;;;8.90;6.10;;;13.80;99.90;;;;;;10215984;29;20310;-95
2023/05/25 02:57:27;;;;;;;9.57;6.55;;;13.80;99.90;;;;;;10197621;29;20235;-94
2023/05/25 03:02:32;;;;;;;6.03;5.40;;;13.60;99.90;;;;;;10213252;29;20251;-94
2023/05/25 03:07:36;;;;;;;8.25;5.65;;;13.70;99.90;;;;;;10197490;29;20219;-94
2023/05/25 03:12:39;;;;;;;7.28;5.65;;;13.80;99.90;;;;;;10213219;29;20215;-94
2023/05/25 03:17:41;;;;;;;10.85;5.55;;;13.80;99.90;;;;;;10197834;29;20235;-95
2023/05/25 03:22:45;;;;;;;12.52;7.10;;;13.90;99.90;;;;;;10197507;29;20755;-94
2023/05/25 03:27:51;;;;;;;7.22;5.97;;;13.80;99.90;;;;;;10212976;29;20207;-94
2023/05/25 03:32:54;;;;;;;8.45;5.95;;;13.80;99.90;;;;;;10213895;29;20226;-93
2023/05/25 03:37:58;;;;;;;10.43;6.90;;;13.80;99.90;;;;;;10196445;29;20227;-94
2023/05/25 03:43:01;;;;;;;8.98;5.65;;;13.60;99.90;;;;;;10196936;29;20254;-95
2023/05/25 03:48:04;;;;;;;10.15;6.65;;;13.70;99.90;;;;;;10196291;29;20206;-94
2023/05/25 03:53:07;;;;;;;7.20;4.43;;;13.80;99.90;;;;;;10195895;29;20585;-94
2023/05/25 03:58:10;;;;;;;13.88;6.70;;;14.00;99.90;;;;;;10213252;29;20632;-94
2023/05/25 04:03:13;;;;;;;9.15;5.68;;;14.00;99.90;;;;;;10180554;29;20558;-93
2023/05/25 04:08:18;;;;;;;9.63;6.53;;;14.00;99.90;;;;;;10187415;29;20274;-95
2023/05/25 04:13:21;;;;;;;10.32;7.53;;;14.00;99.90;;;;;;10195087;29;20278;-94
2023/05/25 04:18:23;;;;;;;12.23;6.95;;;14.10;99.90;;;;;;10210685;29;20700;-94
2023/05/25 04:23:26;;;;;;;7.10;5.60;;;14.10;99.90;;;;;;10194973;29;20219;-94
2023/05/25 04:28:29;;;;;;;7.60;5.55;;;14.30;99.90;;;;;;10195178;29;20214;-94
2023/05/25 04:33:45;;;;;;;15.90;8.45;;;14.30;99.90;;;;;;10210524;29;20290;-94
2023/05/25 04:38:53;;;;;;;7.78;5.90;;;14.70;99.90;;;;;;10180034;29;20262;-95
2023/05/25 04:43:58;;;;;;;9.07;5.93;;;14.80;99.90;;;;;;10195384;29;20340;-94
2023/05/25 04:49:17;;;;;;;11.13;6.90;;;14.90;99.90;;;;;;10195131;29;20266;-95
2023/05/25 04:54:20;;;;;;;10.30;5.72;;;14.90;99.90;;;;;;10194785;29;20215;-94
2023/05/25 04:59:23;;;;;;;7.50;5.47;;;14.90;99.90;;;;;;10195563;29;20211;-94
2023/05/25 05:04:26;;;;;;;7.30;5.13;;;15.10;99.90;;;;;;10194849;29;20214;-94
2023/05/25 05:09:29;;;;;;;9.18;5.38;;;15.30;99.90;;;;;;10194825;29;20211;-94
2023/05/25 05:14:35;;;;;;;9.77;6.55;;;15.10;99.90;;;;;;10211866;29;20965;-95
2023/05/25 05:19:38;;;;;;;12.10;6.45;;;15.40;99.90;;;;;;10209970;29;20207;-94
2023/05/25 05:24:43;;;;;;;11.93;7.45;;;15.00;99.90;;;;;;10201180;29;20219;-95
2023/05/25 05:29:51;;;;;;;9.25;5.60;;;15.00;99.90;;;;;;10201599;29;20771;-94
2023/05/25 05:34:55;;;;;;;13.70;5.82;;;15.40;99.90;;;;;;10216260;29;20235;-95
2023/05/25 05:40:14;;;;;;;5.82;3.53;;;15.30;99.90;;;;;;10200748;29;20747;-95
2023/05/25 05:45:17;;;;;;;7.18;4.88;;;15.50;99.90;;;;;;10201832;29;20215;-95
2023/05/25 05:50:20;;;;;;;12.30;6.28;;;15.80;99.90;;;;;;10200403;29;20274;-94
2023/05/25 05:55:22;;;;;;;17.45;5.53;;;15.70;99.90;;;;;;10216511;29;20653;-94
2023/05/25 06:00:27;;;;;;;4.68;3.63;;;15.80;99.90;;;;;;10200760;29;20266;-95
2023/05/25 06:05:29;;;;;;;12.07;6.40;;;15.90;99.90;;;;;;10200385;29;20774;-94
2023/05/25 06:10:33;;;;;;;11.05;4.35;;;15.90;99.90;;;;;;10200252;29;20207;-94
2023/05/25 06:15:36;;;;;;;12.43;5.88;;;16.20;99.90;;;;;;10199887;29;20226;-94
2023/05/25 06:20:44;;;;;;;8.60;4.50;;;16.30;99.90;;;;;;10200094;29;20676;-95
2023/05/25 06:25:46;;;;;;;8.93;5.00;;;16.40;99.90;;;;;;10199842;29;20272;-94
2023/05/25 06:30:49;;;;;;;14.38;4.43;;;16.10;99.90;;;;;;10199330;29;20577;-95
2023/05/25 06:35:55;;;;;;;6.47;4.15;;;16.60;99.90;;;;;;10199225;29;20239;-94
2023/05/25 06:41:04;;;;;;;5.97;3.78;;;16.30;99.30;;;;;;10199615;29;20266;-94
2023/05/25 06:46:16;;;;;;;9.38;4.80;;;16.60;99.90;;;;;;10199260;29;20215;-94
2023/05/25 06:51:20;;;;;;;6.38;4.43;;;16.50;99.90;;;;;;10214532;29;20276;-94
2023/05/25 06:56:23;;;;;;;4.80;3.67;;;16.50;99.60;;;;;;10215187;29;20234;-94
2023/05/25 07:01:25;;;;;;;8.65;4.60;;;17.10;99.90;;;;;;10214845;29;20266;-95
2023/05/25 07:06:28;;;;;;;5.80;3.88;;;17.00;97.90;;;;;;10198622;29;20551;-94
2023/05/25 07:11:31;;;;;;;7.75;4.38;;;16.80;96.50;;;;;;10198413;29;20267;-94
2023/05/25 07:16:33;;;;;;;7.82;4.13;;;17.00;98.10;;;;;;10197666;29;20791;-95
2023/05/25 07:21:36;;;;;;;8.77;4.97;;;17.30;99.60;;;;;;10214707;29;20219;-95
2023/05/25 07:26:39;;;;;;;4.45;3.33;;;17.60;99.60;;;;;;10214860;29;20211;-94
2023/05/25 07:31:42;;;;;;;8.90;3.78;;;17.40;97.90;;;;;;10213109;29;20239;-94
2023/05/25 07:36:45;;;;;;;5.20;3.60;;;17.70;99.00;;;;;;10212464;29;20771;-95
2023/05/25 07:41:47;;;;;;;7.07;4.88;;;17.90;96.10;;;;;;10204768;29;20215;-95
2023/05/25 07:46:50;;;;;;;5.93;3.28;;;17.80;95.50;;;;;;10213426;29;20239;-94
2023/05/25 07:51:52;;;;;;;3.83;3.22;;;18.10;95.50;;;;;;10214053;29;20274;-94
2023/05/25 07:56:55;;;;;;;8.57;3.60;;;18.20;98.50;;;;;;10196117;29;20711;-94
2023/05/25 08:01:57;;;;;;;6.60;4.07;;;18.30;91.90;;;;;;10213903;29;20207;-96
2023/05/25 08:07:00;;;;;;;7.32;3.83;;;18.20;91.30;;;;;;10213139;29;20207;-94
2023/05/25 08:12:03;;;;;;;5.97;3.58;;;18.40;92.40;;;;;;10212658;29;20620;-94
2023/05/25 08:17:25;;;;;;;3.95;3.47;;;18.30;91.30;;;;;;10195551;29;20227;-94
2023/05/25 08:22:28;;;;;;;10.15;4.50;;;18.80;96.70;;;;;;10197530;29;20239;-96
2023/05/25 08:27:31;;;;;;;9.85;3.90;;;18.70;90.40;;;;;;10212407;29;20219;-95
2023/05/25 08:32:36;;;;;;;8.70;4.18;;;18.90;93.10;;;;;;10195142;29;20242;-95
2023/05/25 08:37:39;;;;;;;5.72;3.78;;;18.80;91.20;;;;;;10195601;29;20290;-95
2023/05/25 08:42:43;;;;;;;5.78;4.10;;;19.20;93.30;;;;;;10211418;29;20675;-94
2023/05/25 08:47:52;;;;;;;6.43;3.88;;;19.30;93.30;;;;;;10211828;29;20262;-94
2023/05/25 08:52:58;;;;;;;4.15;3.05;;;19.30;91.30;;;;;;10194327;29;20298;-95
2023/05/25 08:58:22;;;;;;;4.90;3.38;;;19.60;92.10;;;;;;10217878;29;20285;-94
2023/05/25 09:03:25;;;;;;;8.73;4.90;;;19.60;88.60;;;;;;10220563;29;20734;-95
2023/05/25 09:08:29;;;;;;;6.53;3.60;;;;;;;;;;10218501;29;20779;-95
2023/05/25 09:13:32;;;;;;;4.00;3.00;;;19.70;80.00;;;;;;10203271;29;20279;-95
2023/05/25 09:18:35;;;;;;;7.28;3.85;;;19.60;75.60;;;;;;10219071;29;20231;-94
2023/05/25 09:23:38;;;;;;;3.97;2.95;;;19.70;82.60;;;;;;10219471;29;20211;-94
2023/05/25 09:28:47;;;;;;;2.97;2.67;;;20.00;86.60;;;;;;10202687;29;20270;-94
2023/05/25 09:33:50;;;;;;;4.20;3.72;;;20.40;81.30;;;;;;10218622;29;20235;-96
2023/05/25 09:38:54;;;;;;;7.95;3.90;;;20.40;81.70;;;;;;10218455;29;20231;-95
2023/05/25 09:43:57;;;;;;;10.30;4.18;;;20.30;72.70;;;;;;10218594;29;20207;-94
2023/05/25 09:49:13;;;;;;;3.83;2.92;;;20.00;80.80;;;;;;10201819;29;20772;-94
2023/05/25 09:54:16;;;;;;;4.15;3.53;;;20.40;90.10;;;;;;10217519;29;20270;-94
2023/05/25 09:59:19;;;;;;;9.57;3.88;;;;;;;;;;10217355;29;20263;-95
2023/05/25 10:04:21;;;;;;;5.25;3.35;;;20.70;76.80;;;;;;10218368;29;20215;-92
2023/05/25 10:09:26;;;;;;;6.40;3.38;;;20.70;76.60;;;;;;10217785;29;20215;-92
2023/05/25 10:14:29;;;;;;;3.50;3.20;;;20.50;76.30;;;;;;10217634;29;20211;-93
2023/05/25 10:19:53;;;;;;;5.65;3.67;;;20.40;87.10;;;;;;10216135;29;20227;-93
2023/05/25 10:25:01;;;;;;;7.70;4.28;;;20.50;83.20;;;;;;10199645;29;20211;-93
2023/05/25 10:30:12;;;;;;;5.68;4.00;;;20.70;86.40;;;;;;10215902;29;20629;-94
2023/05/25 10:35:16;;;;;;;4.57;3.70;;;20.80;78.00;;;;;;10199290;29;20238;-92
2023/05/25 10:40:22;;;;;;;6.35;4.40;;;20.60;79.90;;;;;;10216510;29;20230;-92
2023/05/25 10:45:25;;;;;;;4.40;3.00;;;20.60;70.80;;;;;;10215899;29;20215;-93
2023/05/25 10:50:33;;;;;;;4.55;3.72;;;20.80;79.60;;;;;;10216069;29;20228;-93
2023/05/25 10:55:56;;;;;;;5.40;4.53;;;20.60;74.10;;;;;;10216195;29;20203;-92
2023/05/25 11:01:06;;;;;;;5.90;4.28;;;20.60;78.10;;;;;;10215928;29;20258;-92
2023/05/25 11:06:10;;;;;;;5.43;4.05;;;20.90;67.40;;;;;;10215564;29;20271;-93
2023/05/25 11:11:12;;;;;;;7.45;4.90;;;20.80;69.60;;;;;;10215302;29;20367;-93
2023/05/25 11:16:34;;;;;;;7.32;4.68;;;20.70;64.90;;;;;;10214909;29;20255;-93
2023/05/25 11:21:42;;;;;;;6.70;5.05;;;20.90;71.40;;;;;;10196552;29;20211;-93
2023/05/25 11:26:55;;;;;;;7.32;6.25;;;20.90;68.60;;;;;;10213937;29;20270;-93
2023/05/25 11:31:58;;;;;;;7.20;5.25;;;21.00;68.30;;;;;;10214265;29;20270;-93
2023/05/25 11:37:02;;;;;;;7.63;5.45;;;20.70;63.80;;;;;;10214297;29;20274;-93
2023/05/25 11:42:10;;;;;;;6.30;5.55;;;20.20;63.70;;;;;;10213278;29;20219;-94
2023/05/25 11:47:13;;;;;;;7.38;5.28;;;20.30;62.50;;;;;;10213360;29;20214;-94
2023/05/25 11:52:18;;;;;;;10.48;5.95;;;20.60;69.90;;;;;;10213812;29;20215;-93
2023/05/25 11:57:25;;;;;;;7.72;5.88;;;20.60;62.40;;;;;;10213865;29;20215;-93
2023/05/25 12:02:36;;;;;;;6.40;5.47;;;20.40;63.40;;;;;;10212848;29;20203;-92
2023/05/25 12:07:45;;;;;;;6.15;4.45;;;20.60;59.10;;;;;;10196601;29;20591;-94
2023/05/25 12:12:50;;;;;;;6.70;4.70;;;20.80;65.20;;;;;;10212487;29;20582;-93
2023/05/25 12:17:53;;;;;;;9.73;4.85;;;20.90;74.90;;;;;;10213651;29;20282;-93
2023/05/25 12:22:57;;;;;;;9.32;5.65;;;20.70;56.00;;;;;;10196040;29;20572;-94
2023/05/25 12:28:13;;;;;;;5.43;4.15;;;20.80;59.60;;;;;;10195282;29;20215;-95
2023/05/25 12:33:16;;;;;;;5.15;4.57;;;20.90;73.50;;;;;;10211178;29;20238;-94
2023/05/25 12:38:22;;;;;;;11.30;4.68;;;21.10;63.80;;;;;;10212526;29;20602;-94
2023/05/25 12:43:25;;;;;;;8.10;5.18;;;21.10;64.10;;;;;;10210598;29;20258;-94
2023/05/25 12:48:28;;;;;;;4.88;4.20;;;21.10;64.90;;;;;;10195258;29;20215;-93
2023/05/25 12:53:32;;;;;;;6.50;5.13;;;20.90;64.10;;;;;;10194435;29;20219;-92
2023/05/25 12:58:35;;;;;;;5.20;4.70;;;21.10;59.00;;;;;;10210808;29;20289;-91
2023/05/25 13:03:37;;;;;;;6.68;5.20;;;21.20;63.10;;;;;;10210815;29;20570;-92
2023/05/25 13:08:40;;;;;;;5.40;4.50;;;21.10;59.40;;;;;;10178833;29;20277;-92
2023/05/25 13:13:43;;;;;;;4.93;4.03;;;21.00;60.60;;;;;;10211861;29;20199;-93
2023/05/25 13:18:46;;;;;;;5.15;4.72;;;21.10;73.00;;;;;;10211121;29;20232;-92
2023/05/25 13:23:49;;;;;;;7.18;5.97;;;21.10;64.50;;;;;;10194296;29;20216;-92
2023/05/25 13:28:51;;;;;;;5.40;4.78;;;21.30;66.30;;;;;;10195614;29;20270;-92
2023/05/25 13:33:56;;;;;;;9.98;5.45;;;21.20;61.30;;;;;;10211865;29;20283;-92
2023/05/25 13:39:00;;;;;;;11.07;5.72;;;20.90;58.70;;;;;;10195185;29;20275;-92
2023/05/25 13:44:03;;;;;;;6.82;5.05;;;20.90;56.30;;;;;;10215313;29;20207;-93
2023/05/25 13:49:05;;;;;;;8.23;5.70;;;21.00;62.40;;;;;;10217720;29;20214;-92
2023/05/25 13:54:08;;;;;;;9.73;5.53;;;21.10;57.40;;;;;;10218082;29;20258;-91
2023/05/25 13:59:10;;;;;;;5.28;3.55;;;21.00;58.70;;;;;;10217638;29;20584;-93
2023/05/25 14:04:16;;;;;;;10.63;4.85;;;20.80;56.50;;;;;;10200987;29;20661;-93
2023/05/25 14:09:18;;;;;;;4.75;4.10;;;20.80;56.60;;;;;;10200431;29;20680;-93
2023/05/25 14:14:21;;;;;;;4.82;4.32;;;21.00;67.50;;;;;;10216868;29;20243;-92
2023/05/25 14:19:34;;;;;;;6.35;3.97;;;21.10;64.80;;;;;;10216380;29;20227;-93
2023/05/25 14:24:36;;;;;;;4.95;3.78;;;21.10;61.80;;;;;;10199817;29;20239;-91
2023/05/25 14:29:39;;;;;;;4.72;3.60;;;21.10;59.40;;;;;;10216140;29;20211;-92
2023/05/25 14:34:42;;;;;;;6.88;3.58;;;21.20;71.10;;;;;;10216445;29;20608;-92
2023/05/25 14:39:45;;;;;;;4.28;3.20;;;21.10;49.70;;;;;;10216751;29;20231;-93
2023/05/25 14:44:47;;;;;;;4.30;3.13;;;20.90;47.70;;;;;;10214670;29;20211;-92
2023/05/25 14:49:50;;;;;;;4.35;3.05;;;21.10;53.60;;;;;;10215132;29;20644;-92
2023/05/25 14:54:52;;;;;;;4.07;3.60;;;21.20;51.70;;;;;;10199012;29;20271;-93
2023/05/25 14:59:55;;;;;;;4.38;3.97;;;21.30;65.60;;;;;;10198749;29;20282;-93
2023/05/25 15:04:58;;;;;;;5.88;4.95;;;21.20;67.60;;;;;;10215308;29;20263;-93
2023/05/25 15:10:01;;;;;;;5.00;3.60;;;21.20;60.60;;;;;;10214527;29;20219;-92
2023/05/25 15:15:04;;;;;;;7.20;3.47;;;21.30;56.40;;;;;;10214263;29;20243;-92
2023/05/25 15:20:07;;;;;;;5.80;3.65;;;21.20;46.10;;;;;;10213940;29;20226;-91
2023/05/25 15:25:09;;;;;;;11.45;3.80;;;21.30;64.90;;;;;;10214820;29;20214;-92
2023/05/25 15:30:13;;;;;;;4.90;3.35;;;21.20;56.60;;;;;;10214503;29;20294;-92
2023/05/25 15:35:15;;;;;;;5.85;2.88;;;21.30;58.90;;;;;;10213287;29;20708;-91
2023/05/25 15:40:18;;;;;;;4.55;3.15;;;21.30;50.60;;;;;;10196659;29;20598;-93
2023/05/25 15:45:21;;;;;;;6.05;3.83;;;21.30;54.50;;;;;;10213830;29;20665;-92
2023/05/25 15:50:23;;;;;;;6.25;3.92;;;21.30;63.20;;;;;;10196246;29;20274;-92
2023/05/25 15:55:27;;;;;;;3.92;3.45;;;21.30;66.30;;;;;;10212834;29;20251;-92
2023/05/25 16:00:31;;;;;;;5.00;3.97;;;21.20;68.60;;;;;;10213341;29;20294;-92
2023/05/25 16:05:34;;;;;;;5.28;3.10;;;21.30;66.80;;;;;;10212590;29;20576;-92
2023/05/25 16:10:36;;;;;;;4.82;3.38;;;21.30;55.70;;;;;;10196249;29;20207;-91
2023/05/25 16:15:39;;;;;;;3.35;3.05;;;21.30;58.00;;;;;;10213057;29;20206;-92
2023/05/25 16:20:42;;;;;;;3.70;2.17;;;21.40;63.30;;;;;;10210950;29;20608;-92
2023/05/25 16:25:45;;;;;;;5.10;3.20;;;21.40;46.10;;;;;;10212782;29;20211;-91
2023/05/25 16:30:48;;;;;;;3.88;3.47;;;21.70;56.70;;;;;;10212146;29;20214;-92
2023/05/25 16:35:52;;;;;;;4.20;3.65;;;21.80;56.60;;;;;;10207730;29;20689;-92
2023/05/25 16:40:55;;;;;;;3.92;2.60;;;21.90;59.60;;;;;;10212145;29;20227;-94
2023/05/25 16:45:57;;;;;;;2.65;2.45;;;21.90;42.80;;;;;;10212119;29;20207;-92
2023/05/25 16:51:00;;;;;;;4.35;3.10;;;22.00;42.10;;;;;;10194915;29;20300;-91
2023/05/25 16:56:03;;;;;;;18.38;2.90;;;22.10;43.90;;;;;;10211658;29;20223;-92
2023/05/25 17:01:05;;;;;;;9.73;3.08;;;21.80;35.40;;;;;;10195272;29;20234;-92
2023/05/25 17:06:08;;;;;;;5.35;2.72;;;21.50;33.70;;;;;;10194589;29;20231;-93
2023/05/25 17:11:11;;;;;;;6.28;3.75;;;21.40;39.00;;;;;;10194811;29;20211;-92
2023/05/25 17:16:13;;;;;;;6.35;2.58;;;21.30;35.90;;;;;;10211141;29;20242;-91
2023/05/25 17:21:16;;;;;;;7.30;2.83;;;21.20;35.30;;;;;;10219341;29;20235;-93
2023/05/25 17:26:18;;;;;;;7.68;2.78;;;21.00;38.80;;;;;;10219484;29;20207;-92
2023/05/25 17:31:21;;;;;;;8.63;3.38;;;20.80;35.40;;;;;;10201826;29;20628;-93
2023/05/25 17:36:24;;;;;;;6.03;2.70;;;20.70;37.30;;;;;;10217935;29;20588;-93
2023/05/25 17:41:28;;;;;;;7.47;3.05;;;20.60;37.70;;;;;;10202290;29;20576;-93
2023/05/25 17:46:30;;;;;;;2.70;2.50;;;20.50;43.80;;;;;;10218485;29;20573;-93
2023/05/25 17:51:33;;;;;;;13.43;2.70;;;20.50;44.80;;;;;;10217955;29;20223;-93
2023/05/25 17:56:35;;;;;;;7.43;3.15;;;20.40;45.30;;;;;;10217838;29;20207;-94
2023/05/25 18:01:39;;;;;;;6.22;3.60;;;20.20;49.40;;;;;;10185256;29;20607;-93
2023/05/25 18:06:42;;;;;;;8.88;3.35;;;20.10;53.50;;;;;;10218594;29;20336;-93
2023/05/25 18:11:45;;;;;;;8.40;4.03;;;19.80;48.00;;;;;;10201303;29;20211;-92
2023/05/25 18:16:47;;;;;;;6.28;3.50;;;19.60;49.50;;;;;;10218353;29;20211;-93
2023/05/25 18:21:50;;;;;;;5.68;3.22;;;19.30;47.90;;;;;;10200653;29;20227;-93
2023/05/25 18:26:52;;;;;;;5.85;3.75;;;19.00;47.10;;;;;;10217057;29;20549;-94
2023/05/25 18:31:55;;;;;;;5.63;3.50;;;18.80;48.50;;;;;;10198467;29;20246;-93
2023/05/25 18:36:57;;;;;;;8.18;3.63;;;18.50;50.10;;;;;;10215998;29;20214;-93
2023/05/25 18:42:00;;;;;;;14.02;9.85;;;18.40;56.40;;;;;;10199482;29;20227;-93
2023/05/25 18:47:03;;;;;;;9.75;7.63;;;18.30;62.20;;;;;;10215802;29;20239;-94
2023/05/25 18:52:07;;;;;;;7.10;4.28;;;18.10;66.00;;;;;;10214206;29;20211;-93
2023/05/25 18:57:09;;;;;;;5.28;4.10;;;18.00;70.70;;;;;;10215358;29;20270;-93
2023/05/25 19:02:12;;;;;;;15.48;7.18;;;17.80;74.80;;;;;;10199592;29;20278;-93
2023/05/25 19:07:15;;;;;;;8.27;3.95;;;17.60;74.60;;;;;;10215231;29;20675;-93
2023/05/25 19:12:17;;;;;;;10.23;4.72;;;17.30;72.50;;;;;;10215523;29;20251;-92
2023/05/25 19:17:20;;;;;;;5.72;5.13;;;17.20;76.80;;;;;;10215549;29;20203;-93
2023/05/25 19:22:23;;;;;;;17.60;4.50;;;17.20;80.80;;;;;;10213799;29;20234;-93
2023/05/25 19:27:25;;;;;;;5.72;4.70;;;17.10;87.30;;;;;;10213218;29;20207;-94
2023/05/25 19:32:28;;;;;;;15.63;5.28;;;17.00;90.30;;;;;;10197292;29;20724;-93
2023/05/25 19:37:31;;;;;;;6.78;5.03;;;16.90;92.70;;;;;;10181350;29;20593;-94
2023/05/25 19:42:33;;;;;;;5.30;4.63;;;16.80;94.00;;;;;;10196195;29;20214;-93
2023/05/25 19:47:36;;;;;;;10.13;5.65;;;16.70;96.30;;;;;;10214331;29;20211;-94
2023/05/25 19:52:39;;;;;;;6.38;5.68;;;16.60;96.20;;;;;;10213910;29;20215;-94
2023/05/25 19:57:42;;;;;;;8.32;5.07;;;16.50;97.40;;;;;;10196980;29;20593;-94
2023/05/25 20:02:44;;;;;;;17.67;5.47;;;16.40;97.90;;;;;;10213768;29;20195;-94
2023/05/25 20:07:49;;;;;;;8.50;4.30;;;16.40;99.90;;;;;;10212763;29;20277;-94
2023/05/25 20:12:52;;;;;;;7.35;4.55;;;;;;;;;;10212996;29;20211;-94
2023/05/25 20:17:55;;;;;;;7.82;4.82;;;16.10;99.60;;;;;;10196319;29;20918;-94
2023/05/25 20:22:57;;;;;;;8.77;4.47;;;16.00;99.90;;;;;;10211672;29;20285;-93
2023/05/25 20:28:00;;;;;;;8.05;5.47;;;;;;;;;;10211843;29;20211;-93
2023/05/25 20:33:03;;;;;;;9.60;4.88;;;15.70;99.90;;;;;;10194569;29;20243;-93
2023/05/25 20:38:05;;;;;;;17.85;6.32;;;15.60;99.90;;;;;;10211683;29;20646;-93
2023/05/25 20:43:08;;;;;;;12.30;4.38;;;15.40;99.90;;;;;;10211967;29;20753;-94
2023/05/25 20:48:11;;;;;;;8.23;5.18;;;;;;;;;;10212117;29;20266;-94
2023/05/25 20:53:14;;;;;;;13.15;6.75;;;15.20;99.90;;;;;;10200389;29;20258;-94
2023/05/25 20:58:17;;;;;;;7.35;4.68;;;14.90;99.90;;;;;;10220251;29;20790;-94
2023/05/25 21:03:19;;;;;;;7.05;4.60;;;14.90;99.90;;;;;;10220241;29;20266;-94
2023/05/25 21:08:22;;;;;;;7.80;5.47;;;14.90;99.90;;;;;;10203044;29;20219;-93
2023/05/25 21:13:25;;;;;;;5.85;5.20;;;15.00;99.90;;;;;;10218350;29;20266;-93
2023/05/25 21:18:28;;;;;;;6.70;5.78;;;15.00;99.90;;;;;;10219480;29;20243;-94
2023/05/25 21:23:30;;;;;;;10.18;6.10;;;14.90;99.90;;;;;;10219519;29;20624;-94
2023/05/25 21:28:33;;;;;;;9.13;5.90;;;14.90;99.90;;;;;;10218668;29;20632;-93
2023/05/25 21:33:36;;;;;;;13.38;6.63;;;14.80;99.90;;;;;;10218092;29;20259;-93
2023/05/25 21:38:39;;;;;;;6.45;4.43;;;14.90;99.90;;;;;;10217016;29;20230;-94
2023/05/25 21:43:41;;;;;;;6.45;5.00;;;14.80;99.90;;;;;;10201836;29;20207;-92
2023/05/25 21:48:44;;;;;;;14.98;5.63;;;14.80;99.90;;;;;;10218534;29;20642;-94
2023/05/25 21:53:47;;;;;;;8.15;4.35;;;14.80;99.90;;;;;;10218342;29;20219;-93
2023/05/25 21:58:49;;;;;;;6.57;4.60;;;14.70;99.90;;;;;;10200654;29;20227;-94
2023/05/25 22:03:52;;;;;;;7.68;4.47;;;14.80;99.90;;;;;;10217576;29;20266;-93
2023/05/25 22:08:54;;;;;;;5.78;4.07;;;14.80;99.90;;;;;;10185693;29;20215;-94
2023/05/25 22:13:57;;;;;;;8.70;4.60;;;14.70;99.90;;;;;;10201017;29;20676;-94
2023/05/25 22:18:59;;;;;;;8.07;4.38;;;14.80;99.90;;;;;;10218051;29;20227;-93
2023/05/25 22:24:02;;;;;;;9.63;4.20;;;14.70;99.90;;;;;;10217583;29;20243;-93
2023/05/25 22:29:05;;;;;;;9.38;4.70;;;14.60;99.90;;;;;;10216643;29;20266;-93
2023/05/25 22:34:07;;;;;;;7.90;4.93;;;14.60;99.90;;;;;;10216758;29;20235;-93
2023/05/25 22:39:10;;;;;;;7.05;4.88;;;14.50;99.90;;;;;;10216598;29;20242;-94
2023/05/25 22:44:12;;;;;;;10.10;4.78;;;14.40;99.90;;;;;;10216490;29;20211;-94
2023/05/25 22:49:15;;;;;;;6.43;4.68;;;14.30;99.90;;;;;;10199490;29;20215;-93
2023/05/25 22:54:18;;;;;;;8.80;4.57;;;14.30;99.90;;;;;;10215995;29;20267;-93
2023/05/25 22:59:20;;;;;;;11.75;5.13;;;14.20;99.90;;;;;;10215292;29;20231;-94
2023/05/25 23:04:23;;;;;;;8.25;4.55;;;14.10;99.90;;;;;;10215567;29;20211;-93
2023/05/25 23:09:26;;;;;;;6.68;4.75;;;13.90;99.90;;;;;;10198091;29;20207;-94
2023/05/25 23:14:29;;;;;;;5.88;4.80;;;14.00;99.90;;;;;;10197786;29;20215;-94
2023/05/25 23:19:32;;;;;;;10.85;4.63;;;13.90;99.90;;;;;;10214224;29;20593;-93
2023/05/25 23:24:36;;;;;;;4.82;3.60;;;14.00;99.90;;;;;;10214810;29;20211;-93
2023/05/25 23:29:38;;;;;;;7.00;3.50;;;14.10;99.90;;;;;;10213477;29;20211;-93
2023/05/25 23:34:41;;;;;;;10.20;4.28;;;14.00;99.90;;;;;;10208091;29;20279;-93
2023/05/25 23:39:43;;;;;;;7.10;3.42;;;14.00;99.90;;;;;;10213654;29;20230;-94
2023/05/25 23:44:46;;;;;;;7.95;4.35;;;14.10;99.90;;;;;;10214143;29;20570;-93
2023/05/25 23:49:48;;;;;;;7.93;4.30;;;14.00;99.90;;;;;;10213139;29;20223;-94
2023/05/25 23:54:51;;;;;;;6.45;3.78;;;14.00;99.90;;;;;;10213858;29;20211;-95
2023/05/25 23:59:54;;;;;;;7.13;4.07;;;14.10;99.90;;;;;;10196697;29;20302;-93
